Main page
Satellite images 15-day forecastsClimateMarine weather Cyclones Lightning AirportsFAQ Newsletter About
Weather : Europe Africa North America South America Asia Australia-Oceania Others
Languages Contact

Doha, Qatar

latitude: 25-15N, longitude: 051-34E, elevation: 11 m


METAR: OTBD 211100Z 21006KT 150V270 CAVOK 26/10 Q1014 NOSIG
TAF: OTBD 210500Z 2106/2212 21010KT 8000 NSC BECMG 2120/2122 29010KT BECMG 2205/2207 35014KT

Time: 14:19 (11:19 UTC)

Current weather observation

The report was made 19 minutes ago, at 11:00 UTC
Wind 6 kt from the South/Southwest, varying between South/Southeast and West
Temperature 26°C
Humidity 37%
Pressure 1014 hPa
Visibility 10 km or more
no clouds below 1500 m and no cumulonimbus

Change units

Forecast

The report was made 6 hours and 19 minutes ago, at 05:00 UTC
Forecast valid from 21 at 06 UTC to 22 at 12 UTC
Wind 10 kt from the South/Southwest
Visibility: 8000 m
Becoming
from 21 at 20 UTC to 21 at 22 UTC
Wind 10 kt from the West/Northwest
Becoming
from 22 at 05 UTC to 22 at 07 UTC
Wind 14 kt from the North
The information on this site is subject to a disclaimer
Weather : Europe Africa North America South America Asia Australia-Oceania Others
Satellite images 15-day forecastsClimateMarine weather Cyclones Lightning AirportsFAQ Languages Contact Newsletter About